BAW5G EGKK-KMIA
Flight info
| Callsign | BAW5G |
|---|---|
| Flight time | N/A |
| Altitude | 34000 |
| Route | NOVMA L620 SAM N19 ADKIK DCT FONZU DCT LESLU/M083F340 DCT DINIM NATF JOOPY/N0478F340 DCT NANSO/M081F340 DCT LOMPI M202 JEBBY DCT SELIM M203 SNAGY/N0478F340 BNFSH3 |
| Aircraft | B77W/H-SDE1E2E3FGHIJ2J3J4J5M1RWXY/LB1D1 |
Departure
| Time | 2026-04-16 14:15 |
|---|---|
| Airport | London Gatwick Airport (EGKK) |
Arrival
| Time | N/A |
|---|---|
| Airport | Miami International Airport (KMIA) |
| Time | Latitude | Longitude | Altitude | Speed | Heading |
|---|---|---|---|---|---|
| 2026-04-16 13:49 | 51.15541 | -0.17179 | 208 ft | 0 kts | 135° |
| 2026-04-16 13:59 | 51.15546 | -0.17187 | 208 ft | 4 kts | 135° |
| 2026-04-16 13:59 | 51.15565 | -0.17217 | 214 ft | 4 kts | 135° |
| 2026-04-16 13:59 | 51.15584 | -0.17246 | 220 ft | 4 kts | 148° |
| 2026-04-16 14:00 | 51.15604 | -0.17254 | 208 ft | 4 kts | 214° |
| 2026-04-16 14:00 | 51.15614 | -0.17237 | 215 ft | 3 kts | 254° |
| 2026-04-16 14:00 | 51.15620 | -0.17204 | 208 ft | 4 kts | 256° |
| 2026-04-16 14:00 | 51.15624 | -0.17180 | 208 ft | 0 kts | 256° |
| 2026-04-16 14:03 | 51.15623 | -0.17181 | 218 ft | 1 kts | 256° |
| 2026-04-16 14:04 | 51.15620 | -0.17202 | 219 ft | 3 kts | 256° |
| 2026-04-16 14:04 | 51.15614 | -0.17238 | 212 ft | 3 kts | 255° |
| 2026-04-16 14:04 | 51.15608 | -0.17274 | 215 ft | 3 kts | 255° |
| 2026-04-16 14:04 | 51.15597 | -0.17306 | 208 ft | 4 kts | 220° |
| 2026-04-16 14:05 | 51.15560 | -0.17315 | 208 ft | 9 kts | 177° |
| 2026-04-16 14:05 | 51.15474 | -0.17287 | 218 ft | 14 kts | 167° |
| 2026-04-16 14:05 | 51.15378 | -0.17253 | 214 ft | 14 kts | 168° |
| 2026-04-16 14:05 | 51.15284 | -0.17211 | 218 ft | 14 kts | 152° |
| 2026-04-16 14:06 | 51.15204 | -0.17125 | 214 ft | 14 kts | 124° |
| 2026-04-16 14:06 | 51.15207 | -0.17003 | 208 ft | 4 kts | 78° |
| 2026-04-16 14:06 | 51.15207 | -0.17001 | 211 ft | 0 kts | 78° |
| 2026-04-16 14:09 | 51.15210 | -0.16978 | 208 ft | 3 kts | 78° |
| 2026-04-16 14:10 | 51.15213 | -0.16957 | 208 ft | 2 kts | 78° |
| 2026-04-16 14:10 | 51.15214 | -0.16946 | 208 ft | 0 kts | 77° |
| 2026-04-16 14:13 | 51.15215 | -0.16942 | 219 ft | 2 kts | 77° |
| 2026-04-16 14:14 | 51.15224 | -0.16870 | 218 ft | 10 kts | 84° |
| 2026-04-16 14:14 | 51.15174 | -0.16790 | 216 ft | 14 kts | 171° |
| 2026-04-16 14:14 | 51.15109 | -0.16893 | 209 ft | 16 kts | 257° |
| 2026-04-16 14:14 | 51.15102 | -0.16941 | 207 ft | 0 kts | 259° |
| 2026-04-16 14:15 | 51.15080 | -0.17116 | 214 ft | 45 kts | 257° |
| 2026-04-16 14:15 | 51.14949 | -0.18052 | 215 ft | 127 kts | 257° |
| 2026-04-16 14:15 | 51.14689 | -0.19825 | 246 ft | 194 kts | 254° |
| 2026-04-16 14:15 | 51.14368 | -0.21940 | 946 ft | 196 kts | 254° |
| 2026-04-16 14:16 | 51.14061 | -0.24066 | 1844 ft | 197 kts | 256° |
| 2026-04-16 14:16 | 51.13780 | -0.26288 | 2255 ft | 216 kts | 256° |
| 2026-04-16 14:16 | 51.13462 | -0.28746 | 2499 ft | 235 kts | 256° |
| 2026-04-16 14:16 | 51.13120 | -0.31298 | 3188 ft | 240 kts | 256° |
| 2026-04-16 14:17 | 51.12762 | -0.33899 | 3853 ft | 241 kts | 256° |
| 2026-04-16 14:17 | 51.12395 | -0.36536 | 4565 ft | 245 kts | 255° |
| 2026-04-16 14:17 | 51.12018 | -0.39201 | 5292 ft | 248 kts | 256° |
| 2026-04-16 14:17 | 51.11641 | -0.41894 | 6042 ft | 250 kts | 255° |
| 2026-04-16 14:18 | 51.11111 | -0.44524 | 6727 ft | 251 kts | 245° |
| 2026-04-16 14:18 | 51.10338 | -0.47012 | 7365 ft | 256 kts | 241° |
| 2026-04-16 14:18 | 51.09495 | -0.49535 | 8074 ft | 258 kts | 242° |
| 2026-04-16 14:18 | 51.08670 | -0.52083 | 8791 ft | 260 kts | 242° |
| 2026-04-16 14:19 | 51.07852 | -0.54660 | 9441 ft | 262 kts | 243° |
| 2026-04-16 14:19 | 51.07040 | -0.57249 | 10038 ft | 267 kts | 243° |
| 2026-04-16 14:19 | 51.06181 | -0.59988 | 10467 ft | 282 kts | 243° |
| 2026-04-16 14:19 | 51.05313 | -0.62882 | 10610 ft | 302 kts | 249° |
| 2026-04-16 14:20 | 51.04763 | -0.66228 | 10791 ft | 324 kts | 258° |
| 2026-04-16 14:20 | 51.04346 | -0.69868 | 10965 ft | 346 kts | 258° |
| 2026-04-16 14:20 | 51.03889 | -0.73710 | 11427 ft | 359 kts | 258° |
| 2026-04-16 14:20 | 51.03395 | -0.77639 | 12038 ft | 366 kts | 257° |
| 2026-04-16 14:21 | 51.02866 | -0.81619 | 12795 ft | 369 kts | 257° |
| 2026-04-16 14:21 | 51.02327 | -0.85619 | 13550 ft | 372 kts | 257° |
| 2026-04-16 14:21 | 51.01778 | -0.89655 | 14301 ft | 375 kts | 257° |
| 2026-04-16 14:21 | 51.01215 | -0.93718 | 15016 ft | 378 kts | 256° |
| 2026-04-16 14:22 | 51.00606 | -0.97798 | 15737 ft | 381 kts | 256° |
| 2026-04-16 14:22 | 51.00001 | -1.01863 | 16420 ft | 383 kts | 257° |
| 2026-04-16 14:22 | 50.99426 | -1.06020 | 17067 ft | 387 kts | 257° |
| 2026-04-16 14:22 | 50.98856 | -1.10208 | 17732 ft | 390 kts | 257° |
| 2026-04-16 14:23 | 50.98282 | -1.14437 | 18372 ft | 393 kts | 257° |
| 2026-04-16 14:23 | 50.97699 | -1.18694 | 18985 ft | 396 kts | 257° |
| 2026-04-16 14:23 | 50.97107 | -1.22974 | 19616 ft | 398 kts | 257° |
| 2026-04-16 14:23 | 50.96516 | -1.27230 | 20224 ft | 400 kts | 257° |
| 2026-04-16 14:24 | 50.95911 | -1.31565 | 20784 ft | 403 kts | 257° |
| 2026-04-16 14:24 | 50.95305 | -1.35916 | 21483 ft | 401 kts | 257° |
| 2026-04-16 14:24 | 50.94741 | -1.40238 | 22272 ft | 398 kts | 258° |
| 2026-04-16 14:24 | 50.94201 | -1.44510 | 22874 ft | 399 kts | 258° |
| 2026-04-16 14:25 | 50.93657 | -1.48849 | 23367 ft | 403 kts | 258° |
| 2026-04-16 14:25 | 50.93104 | -1.53223 | 23824 ft | 406 kts | 258° |
| 2026-04-16 14:25 | 50.92543 | -1.57623 | 24301 ft | 408 kts | 258° |
| 2026-04-16 14:25 | 50.92526 | -1.57758 | 24325 ft | 408 kts | 258° |